createdAt,value
2019-04-01T00:00:29.115Z,33.50
2019-04-01T00:03:10.357Z,33.00
2019-04-01T00:05:41.983Z,30.50
2019-04-01T00:08:15.275Z,32.60
2019-04-01T00:10:49.690Z,34.27
2019-04-01T00:13:21.964Z,33.43
2019-04-01T00:15:54.050Z,33.17
2019-04-01T00:18:30.518Z,33.90
2019-04-01T00:21:03.727Z,36.13
2019-04-01T00:23:39.207Z,34.60
2019-04-01T00:26:09.832Z,31.80
2019-04-01T00:28:41.989Z,35.93
2019-04-01T00:31:15.283Z,41.90
2019-04-01T00:33:48.320Z,35.67
2019-04-01T00:36:19.101Z,39.50
2019-04-01T00:38:52.093Z,39.53
2019-04-01T00:41:29.718Z,32.70
2019-04-01T00:44:07.242Z,35.23
2019-04-01T00:46:45.332Z,34.50
2019-04-01T00:49:18.636Z,42.67
2019-04-01T00:51:53.061Z,31.97
2019-04-01T00:54:27.211Z,34.33
2019-04-01T00:56:59.196Z,37.30
2019-04-01T00:59:29.812Z,35.27
2019-04-01T01:02:00.367Z,38.43
2019-04-01T01:04:37.734Z,39.00
2019-04-01T01:07:21.282Z,35.90
2019-04-01T01:09:54.416Z,35.50
2019-04-01T01:12:28.598Z,37.50
2019-04-01T01:15:00.719Z,33.93
2019-04-01T01:17:33.843Z,32.30
2019-04-01T01:20:07.025Z,38.50
2019-04-01T01:22:39.963Z,33.87
2019-04-01T01:25:10.684Z,34.43
2019-04-01T01:27:44.421Z,36.70
2019-04-01T01:30:15.280Z,34.90
2019-04-01T01:32:48.393Z,39.80
2019-04-01T01:35:22.265Z,35.00
2019-04-01T01:37:54.538Z,40.50
2019-04-01T01:40:27.945Z,34.73
2019-04-01T01:43:01.129Z,36.00
2019-04-01T01:45:36.093Z,35.37
2019-04-01T01:48:06.657Z,33.07
2019-04-01T01:50:39.579Z,36.47
2019-04-01T01:53:10.672Z,38.03
2019-04-01T01:55:57.408Z,36.30
2019-04-01T01:58:29.974Z,39.37
2019-04-01T02:01:02.593Z,37.43
2019-04-01T02:03:35.981Z,32.20
2019-04-01T02:06:08.425Z,36.03
2019-04-01T02:08:39.760Z,33.07
2019-04-01T02:11:12.677Z,36.73
2019-04-01T02:13:45.416Z,32.47
2019-04-01T02:16:20.736Z,30.87
2019-04-01T02:18:51.675Z,30.20
2019-04-01T02:21:24.501Z,29.40
2019-04-01T02:23:56.633Z,35.67
2019-04-01T02:26:27.480Z,34.77
2019-04-01T02:29:00.466Z,27.70
2019-04-01T02:31:33.805Z,27.43
2019-04-01T02:34:06.863Z,31.30
2019-04-01T02:36:39.923Z,29.60
2019-04-01T02:39:12.895Z,28.80
2019-04-01T02:41:45.879Z,31.03
2019-04-01T02:44:19.015Z,33.63
2019-04-01T02:46:52.277Z,24.80
2019-04-01T02:49:24.564Z,30.30
2019-04-01T02:51:57.788Z,26.00
2019-04-01T02:54:31.559Z,27.60
2019-04-01T02:57:06.446Z,26.37
2019-04-01T02:59:39.586Z,25.60
2019-04-01T03:02:10.096Z,27.07
2019-04-01T03:04:44.563Z,30.20
2019-04-01T03:07:21.210Z,23.17
2019-04-01T03:09:51.653Z,27.20
2019-04-01T03:12:24.997Z,25.80
2019-04-01T03:14:59.001Z,25.27
2019-04-01T03:17:38.978Z,24.80
2019-04-01T03:20:09.817Z,30.00
2019-04-01T03:22:44.078Z,26.77
2019-04-01T03:25:16.234Z,23.90
2019-04-01T03:27:49.935Z,20.13
2019-04-01T03:30:40.951Z,21.53
2019-04-01T03:33:30.234Z,20.10
2019-04-01T03:36:19.021Z,20.10
2019-04-01T03:39:07.703Z,24.00
2019-04-01T03:41:41.025Z,21.10
2019-04-01T03:44:14.963Z,21.93
2019-04-01T03:46:49.575Z,19.03
2019-04-01T03:49:23.094Z,22.13
2019-04-01T03:51:54.983Z,19.17
2019-04-01T03:54:27.027Z,21.50
2019-04-01T03:56:59.873Z,19.90
2019-04-01T03:59:30.406Z,25.23
2019-04-01T04:02:05.242Z,19.53
2019-04-01T04:04:43.248Z,19.20
2019-04-01T04:07:15.240Z,20.03
2019-04-01T04:09:49.786Z,19.50
2019-04-01T04:12:23.267Z,20.00
2019-04-01T04:14:54.349Z,20.90
2019-04-01T04:17:43.348Z,20.00
2019-04-01T04:20:15.832Z,20.73
2019-04-01T04:22:51.238Z,20.80
2019-04-01T04:25:31.072Z,21.77
2019-04-01T04:28:04.558Z,21.27
2019-04-01T04:30:38.344Z,21.47
2019-04-01T04:33:10.777Z,25.53
2019-04-01T04:35:43.259Z,18.97
2019-04-01T04:38:32.312Z,19.90
2019-04-01T04:41:06.476Z,19.83
2019-04-01T04:43:39.967Z,20.53
2019-04-01T04:46:15.117Z,17.40
2019-04-01T04:48:48.466Z,19.67
2019-04-01T04:51:21.338Z,20.70
2019-04-01T04:53:54.504Z,19.60
2019-04-01T04:56:27.990Z,20.00
2019-04-01T04:58:58.952Z,24.10
2019-04-01T05:01:30.149Z,21.33
2019-04-01T05:04:07.174Z,17.73
2019-04-01T05:06:40.400Z,22.17
2019-04-01T05:09:13.039Z,20.33
2019-04-01T05:11:51.256Z,17.43
2019-04-01T05:14:24.701Z,24.10
2019-04-01T05:17:00.265Z,19.40
2019-04-01T05:19:30.764Z,16.63
2019-04-01T05:22:05.424Z,19.50
2019-04-01T05:24:45.903Z,20.63
2019-04-01T05:27:20.959Z,17.97
2019-04-01T05:29:55.486Z,19.03
2019-04-01T05:32:29.779Z,16.20
2019-04-01T05:35:05.352Z,24.70
2019-04-01T05:37:38.922Z,26.23
2019-04-01T05:40:12.902Z,22.70
2019-04-01T05:42:47.319Z,26.80
2019-04-01T05:45:34.946Z,20.93
2019-04-01T05:48:06.537Z,18.37
2019-04-01T05:50:39.645Z,20.70
2019-04-01T05:53:14.321Z,20.67
2019-04-01T05:55:45.708Z,24.67
2019-04-01T05:58:21.064Z,24.67
2019-04-01T06:00:58.781Z,25.77
2019-04-01T06:03:30.129Z,18.60
2019-04-01T06:06:00.743Z,20.00
2019-04-01T06:08:37.325Z,20.93
2019-04-01T06:11:11.549Z,24.13
2019-04-01T06:13:43.100Z,23.70
2019-04-01T06:16:16.837Z,18.97
2019-04-01T06:19:06.522Z,19.20
2019-04-01T06:21:39.953Z,20.80
2019-04-01T06:24:12.609Z,17.90
2019-04-01T06:26:43.285Z,19.73
2019-04-01T06:29:16.171Z,20.03
2019-04-01T06:31:46.692Z,23.33
2019-04-01T06:34:18.890Z,20.77
2019-04-01T06:36:51.887Z,28.57
2019-04-01T06:39:26.599Z,22.40
2019-04-01T06:41:59.242Z,26.60
2019-04-01T06:44:30.317Z,19.00
2019-04-01T06:47:20.271Z,23.57
2019-04-01T06:49:51.891Z,27.07
2019-04-01T06:52:25.293Z,27.43
2019-04-01T06:54:55.875Z,23.50
2019-04-01T06:57:27.694Z,26.20
2019-04-01T07:00:02.780Z,20.10
2019-04-01T07:02:37.107Z,24.50
2019-04-01T07:05:12.811Z,20.60
2019-04-01T07:07:46.090Z,24.50
2019-04-01T07:10:18.064Z,24.17
2019-04-01T07:12:49.267Z,24.13
2019-04-01T07:15:23.699Z,27.50
2019-04-01T07:17:57.275Z,22.93
2019-04-01T07:20:27.827Z,33.83
2019-04-01T07:23:02.033Z,22.40
2019-04-01T07:25:36.871Z,29.17
2019-04-01T07:28:28.569Z,25.77
2019-04-01T07:31:02.814Z,26.70
2019-04-01T07:33:37.276Z,23.13
2019-04-01T07:36:09.150Z,26.77
2019-04-01T07:38:42.549Z,24.57
2019-04-01T07:41:17.136Z,28.23
2019-04-01T07:44:05.712Z,23.10
2019-04-01T07:46:38.248Z,28.17
2019-04-01T07:49:14.452Z,30.20
2019-04-01T07:51:46.782Z,33.70
2019-04-01T07:54:21.088Z,36.70
2019-04-01T07:56:52.079Z,26.97
2019-04-01T07:59:25.950Z,30.90
2019-04-01T08:01:59.031Z,31.40
2019-04-01T08:04:31.786Z,37.80
2019-04-01T08:07:05.938Z,31.10
2019-04-01T08:09:40.024Z,31.60
2019-04-01T08:12:29.397Z,35.07
2019-04-01T08:15:01.371Z,32.40
2019-04-01T08:17:38.941Z,29.40
2019-04-01T08:20:16.375Z,30.57
2019-04-01T08:22:49.302Z,38.53
2019-04-01T08:25:22.100Z,24.77
2019-04-01T08:28:11.414Z,35.80
2019-04-01T08:30:43.196Z,31.07
2019-04-01T08:33:16.459Z,29.60
2019-04-01T08:35:48.229Z,35.43
2019-04-01T08:38:38.854Z,28.77
2019-04-01T08:41:25.176Z,33.83
2019-04-01T08:43:55.709Z,35.23
2019-04-01T08:46:26.271Z,32.87
2019-04-01T08:48:58.594Z,31.47
2019-04-01T08:51:30.386Z,32.57
2019-04-01T08:54:02.339Z,33.60
2019-04-01T08:56:38.182Z,31.77
2019-04-01T08:59:29.407Z,34.60
2019-04-01T09:02:18.073Z,31.70
2019-04-01T09:04:48.299Z,34.30
2019-04-01T09:07:21.437Z,30.40
2019-04-01T09:09:55.741Z,31.77
2019-04-01T09:12:30.852Z,30.77
2019-04-01T09:15:04.431Z,29.93
2019-04-01T09:17:40.221Z,27.00
2019-04-01T09:20:12.404Z,27.13
2019-04-01T09:23:01.687Z,33.30
2019-04-01T09:25:51.072Z,30.97
2019-04-01T09:28:29.453Z,33.57
2019-04-01T09:31:00.575Z,30.90
2019-04-01T09:33:31.353Z,23.83
2019-04-01T09:36:03.801Z,33.13
2019-04-01T09:38:38.525Z,28.13
2019-04-01T09:41:13.089Z,29.73
2019-04-01T09:43:42.555Z,26.83
2019-04-01T09:46:16.627Z,28.30
2019-04-01T09:48:49.397Z,27.00
2019-04-01T09:51:23.560Z,26.37
2019-04-01T09:53:56.501Z,25.67
2019-04-01T09:56:30.627Z,24.87
2019-04-01T09:59:05.911Z,25.50
2019-04-01T10:01:54.880Z,25.47
2019-04-01T10:04:27.576Z,26.33
2019-04-01T10:07:01.472Z,26.00
2019-04-01T10:09:38.995Z,26.93
2019-04-01T10:12:09.842Z,26.87
2019-04-01T10:14:44.434Z,25.27
2019-04-01T10:17:16.320Z,24.07
2019-04-01T10:19:49.489Z,24.77
2019-04-01T10:22:27.646Z,24.00
2019-04-01T10:25:02.411Z,22.70
2019-04-01T10:27:39.635Z,28.90
2019-04-01T10:30:13.925Z,24.53
2019-04-01T10:32:46.851Z,24.77
2019-04-01T10:35:30.759Z,23.33
2019-04-01T10:38:04.013Z,31.93
2019-04-01T10:40:40.834Z,22.40
2019-04-01T10:43:13.748Z,23.27
2019-04-01T10:46:02.706Z,24.03
2019-04-01T10:48:36.107Z,24.17
2019-04-01T10:51:09.933Z,21.57
2019-04-01T10:53:54.927Z,22.40
2019-04-01T10:56:26.971Z,18.80
2019-04-01T10:58:58.272Z,21.70
2019-04-01T11:01:47.668Z,21.90
2019-04-01T11:04:31.348Z,29.33
2019-04-01T11:07:05.841Z,26.03
2019-04-01T11:09:40.387Z,20.37
2019-04-01T11:12:23.137Z,21.70
2019-04-01T11:14:56.147Z,22.30
2019-04-01T11:17:46.380Z,20.37
2019-04-01T11:20:20.388Z,24.97
2019-04-01T11:22:52.222Z,22.57
2019-04-01T11:25:27.822Z,22.50
2019-04-01T11:28:01.037Z,20.10
2019-04-01T11:30:36.813Z,24.87
2019-04-01T11:33:08.304Z,21.00
2019-04-01T11:35:56.758Z,17.87
2019-04-01T11:38:45.898Z,25.37
2019-04-01T11:41:36.926Z,21.63
2019-04-01T11:44:10.642Z,17.90
2019-04-01T11:46:44.111Z,18.87
2019-04-01T11:49:16.308Z,19.93
2019-04-01T11:51:49.335Z,19.07
2019-04-01T11:54:24.031Z,27.07
2019-04-01T11:56:55.316Z,23.30
2019-04-01T11:59:28.185Z,20.67
2019-04-01T12:02:01.227Z,21.60
2019-04-01T12:04:31.750Z,22.80
2019-04-01T12:07:03.128Z,21.80
2019-04-01T12:09:38.717Z,20.13
2019-04-01T12:12:23.702Z,21.60
2019-04-01T12:15:02.547Z,25.63
2019-04-01T12:17:44.248Z,21.20
2019-04-01T12:20:16.419Z,23.27
2019-04-01T12:22:51.275Z,27.70
2019-04-01T12:25:24.521Z,18.07
2019-04-01T12:27:55.984Z,20.80
2019-04-01T12:30:32.912Z,21.73
2019-04-01T12:33:05.900Z,20.20
2019-04-01T12:35:40.026Z,19.63
2019-04-01T12:38:29.341Z,17.97
2019-04-01T12:41:07.722Z,17.77
2019-04-01T12:43:40.753Z,20.97
2019-04-01T12:46:14.279Z,21.00
2019-04-01T12:48:46.803Z,20.23
2019-04-01T12:51:21.783Z,16.03
2019-04-01T12:53:52.288Z,19.23
2019-04-01T12:56:27.756Z,17.10
2019-04-01T12:58:58.356Z,17.50
2019-04-01T13:01:29.693Z,18.70
2019-04-01T13:04:04.390Z,15.53
2019-04-01T13:06:45.200Z,17.70
2019-04-01T13:09:18.556Z,17.60
2019-04-01T13:11:50.564Z,21.77
2019-04-01T13:14:24.325Z,12.63
2019-04-01T13:16:56.478Z,16.20
2019-04-01T13:19:30.763Z,15.10
2019-04-01T13:22:21.011Z,18.23
2019-04-01T13:25:10.255Z,20.50
2019-04-01T13:27:59.206Z,17.97
2019-04-01T13:30:44.723Z,21.57
2019-04-01T13:33:18.780Z,17.63
2019-04-01T13:36:08.512Z,13.57
2019-04-01T13:38:43.986Z,13.90
2019-04-01T13:41:19.244Z,15.40
2019-04-01T13:43:49.810Z,14.60
2019-04-01T13:46:22.598Z,16.77
2019-04-01T13:49:03.984Z,15.57
2019-04-01T13:51:34.385Z,12.73
2019-04-01T13:54:08.915Z,12.20
2019-04-01T13:56:40.642Z,13.37
2019-04-01T13:59:13.584Z,11.93
2019-04-01T14:01:46.884Z,14.10
2019-04-01T14:04:22.877Z,19.23
2019-04-01T14:06:55.118Z,16.50
2019-04-01T14:09:26.697Z,14.87
2019-04-01T14:11:59.891Z,11.83
2019-04-01T14:14:30.897Z,12.20
2019-04-01T14:17:20.368Z,10.97
2019-04-01T14:19:52.875Z,12.03
2019-04-01T14:22:25.512Z,13.83
2019-04-01T14:25:07.325Z,17.83
2019-04-01T14:27:39.769Z,16.67
2019-04-01T14:30:28.562Z,14.53
2019-04-01T14:33:03.112Z,11.10
2019-04-01T14:35:40.489Z,13.60
2019-04-01T14:38:25.248Z,16.33
2019-04-01T14:40:58.358Z,13.90
2019-04-01T14:43:32.450Z,11.73
2019-04-01T14:46:05.834Z,18.63
2019-04-01T14:48:38.975Z,17.90
2019-04-01T14:51:24.997Z,17.10
2019-04-01T14:53:58.307Z,25.40
2019-04-01T14:56:30.871Z,14.27
2019-04-01T14:59:23.753Z,17.27
2019-04-01T15:01:58.406Z,19.83
2019-04-01T15:04:31.005Z,21.33
2019-04-01T15:07:06.077Z,21.47
2019-04-01T15:09:41.459Z,20.73
2019-04-01T15:12:12.093Z,18.80
2019-04-01T15:14:44.959Z,17.47
2019-04-01T15:17:20.539Z,15.20
2019-04-01T15:19:54.967Z,19.67
2019-04-01T15:22:29.378Z,14.53
2019-04-01T15:25:02.278Z,15.33
2019-04-01T15:27:39.260Z,19.37
2019-04-01T15:30:17.575Z,16.60
2019-04-01T15:32:52.164Z,15.20
2019-04-01T15:35:25.405Z,16.63
2019-04-01T15:37:56.209Z,20.63
2019-04-01T15:40:41.519Z,20.80
2019-04-01T15:43:14.321Z,16.43
2019-04-01T15:45:46.550Z,16.00
2019-04-01T15:48:19.491Z,18.23
2019-04-01T15:50:51.068Z,21.90
2019-04-01T15:53:24.731Z,16.80
2019-04-01T15:56:04.754Z,16.17
2019-04-01T15:58:39.657Z,20.47
2019-04-01T16:01:10.478Z,14.50
2019-04-01T16:03:43.160Z,14.77
2019-04-01T16:06:14.026Z,12.43
2019-04-01T16:08:45.865Z,13.30
2019-04-01T16:11:20.188Z,16.17
2019-04-01T16:13:58.227Z,13.03
2019-04-01T16:16:30.162Z,15.60
2019-04-01T16:19:01.786Z,16.90
2019-04-01T16:21:52.171Z,12.90
2019-04-01T16:24:31.197Z,16.07
2019-04-01T16:27:04.326Z,13.20
2019-04-01T16:29:38.781Z,10.73
2019-04-01T16:32:10.447Z,11.13
2019-04-01T16:34:44.289Z,17.37
2019-04-01T16:37:15.427Z,18.70
2019-04-01T16:40:05.944Z,17.47
2019-04-01T16:42:38.408Z,14.67
2019-04-01T16:45:13.350Z,15.50
2019-04-01T16:47:48.602Z,11.93
2019-04-01T16:50:31.712Z,22.33
2019-04-01T16:53:06.270Z,11.03
2019-04-01T16:55:41.270Z,14.70
2019-04-01T16:58:13.399Z,16.70
2019-04-01T17:00:47.835Z,20.23
2019-04-01T17:03:24.891Z,14.20
2019-04-01T17:05:57.691Z,9.40
2019-04-01T17:08:31.613Z,10.60
2019-04-01T17:11:06.080Z,13.43
2019-04-01T17:13:40.785Z,14.03
2019-04-01T17:16:13.621Z,10.50
2019-04-01T17:18:46.440Z,12.70
2019-04-01T17:21:19.617Z,14.90
2019-04-01T17:23:51.052Z,15.60
2019-04-01T17:27:17.542Z,11.53
2019-04-01T17:29:55.794Z,12.90
2019-04-01T17:32:26.817Z,16.13
2019-04-01T17:34:59.742Z,11.20
2019-04-01T17:37:48.359Z,14.47
2019-04-01T17:40:25.182Z,17.37
2019-04-01T17:42:57.308Z,9.90
2019-04-01T17:45:32.258Z,12.70
2019-04-01T17:48:06.976Z,11.90
2019-04-01T17:50:41.368Z,14.47
2019-04-01T17:53:19.685Z,14.50
2019-04-01T17:55:53.215Z,15.33
2019-04-01T17:58:31.676Z,11.07
2019-04-01T18:01:06.367Z,13.10
2019-04-01T18:03:40.078Z,12.20
2019-04-01T18:06:17.271Z,12.20
2019-04-01T18:08:50.045Z,11.57
2019-04-01T18:11:21.537Z,12.00
2019-04-01T18:13:58.800Z,12.47
2019-04-01T18:16:32.746Z,10.90
2019-04-01T18:19:07.070Z,10.53
2019-04-01T18:21:41.957Z,14.40
2019-04-01T18:24:17.944Z,14.70
2019-04-01T18:26:52.899Z,14.63
2019-04-01T18:29:28.430Z,10.50
2019-04-01T18:32:02.379Z,10.60
2019-04-01T18:34:37.751Z,14.27
2019-04-01T18:37:15.683Z,12.23
2019-04-01T18:39:48.727Z,12.97
2019-04-01T18:42:19.984Z,12.57
2019-04-01T18:45:10.941Z,11.97
2019-04-01T18:48:00.335Z,8.33
2019-04-01T18:50:32.112Z,13.43
2019-04-01T18:53:07.375Z,15.00
2019-04-01T18:55:41.154Z,10.57
2019-04-01T18:58:15.929Z,11.97
2019-04-01T19:00:50.909Z,11.70
2019-04-01T19:03:28.242Z,8.87
2019-04-01T19:06:01.549Z,11.50
2019-04-01T19:08:33.816Z,7.17
2019-04-01T19:11:07.098Z,16.20
2019-04-01T19:13:44.187Z,12.20
2019-04-01T19:16:17.453Z,11.30
2019-04-01T19:18:49.696Z,11.10
2019-04-01T19:21:22.669Z,8.87
2019-04-01T19:24:00.104Z,18.57
2019-04-01T19:26:35.526Z,11.27
2019-04-01T19:29:07.120Z,8.90
2019-04-01T19:31:41.488Z,11.00
2019-04-01T19:34:12.303Z,9.17
2019-04-01T19:36:47.037Z,16.53
2019-04-01T19:39:19.325Z,17.80
2019-04-01T19:41:53.285Z,13.80
2019-04-01T19:44:24.173Z,13.10
2019-04-01T19:46:58.780Z,10.80
2019-04-01T19:49:32.248Z,9.57
2019-04-01T19:52:22.849Z,7.80
2019-04-01T19:55:09.545Z,8.67
2019-04-01T19:57:42.104Z,11.70
2019-04-01T20:00:27.049Z,9.47
2019-04-01T20:02:51.895Z,9.80
2019-04-01T20:05:26.882Z,12.20
2019-04-01T20:08:06.961Z,14.93
2019-04-01T20:10:46.049Z,13.20
2019-04-01T20:13:19.898Z,11.10
2019-04-01T20:16:03.248Z,15.50
2019-04-01T20:18:52.572Z,13.43
2019-04-01T20:21:35.163Z,12.00
2019-04-01T20:24:24.277Z,10.50
2019-04-01T20:27:27.700Z,9.30
2019-04-01T20:29:58.521Z,9.50
2019-04-01T20:32:29.769Z,9.40
2019-04-01T20:35:06.273Z,10.63
2019-04-01T20:37:42.030Z,17.60
2019-04-01T20:40:31.621Z,16.47
2019-04-01T20:43:10.003Z,7.70
2019-04-01T20:45:40.562Z,10.50
2019-04-01T20:48:13.706Z,8.27
2019-04-01T20:50:46.979Z,11.73
2019-04-01T20:53:31.939Z,10.40
2019-04-01T20:56:05.810Z,9.90
2019-04-01T20:58:42.787Z,8.37
2019-04-01T21:01:13.765Z,7.50
2019-04-01T21:03:46.614Z,9.90
2019-04-01T21:06:22.077Z,11.60
2019-04-01T21:08:59.904Z,8.30
2019-04-01T21:11:31.403Z,10.83
2019-04-01T21:14:07.160Z,7.30
2019-04-01T21:16:41.596Z,16.37
2019-04-01T21:19:13.545Z,10.60
2019-04-01T21:21:49.733Z,10.00
2019-04-01T21:24:23.763Z,12.70
2019-04-01T21:27:14.242Z,12.90
2019-04-01T21:30:03.610Z,10.50
2019-04-01T21:32:37.301Z,9.40
2019-04-01T21:35:11.919Z,18.30
2019-04-01T21:37:44.740Z,13.93
2019-04-01T21:40:28.898Z,8.67
2019-04-01T21:43:03.899Z,18.80
2019-04-01T21:45:39.614Z,12.40
2019-04-01T21:48:11.015Z,10.90
2019-04-01T21:50:44.939Z,15.10
2019-04-01T21:53:17.475Z,9.30
2019-04-01T21:56:06.221Z,13.67
2019-04-01T21:58:40.424Z,14.50
2019-04-01T22:01:16.771Z,13.10
2019-04-01T22:03:56.020Z,7.93
2019-04-01T22:06:29.069Z,9.63
2019-04-01T22:09:02.014Z,9.80
2019-04-01T22:11:37.639Z,6.13
2019-04-01T22:14:15.550Z,7.87
2019-04-01T22:17:07.559Z,8.00
2019-04-01T22:19:52.913Z,15.03
2019-04-01T22:22:25.925Z,10.33
2019-04-01T22:25:00.227Z,9.10
2019-04-01T22:27:31.847Z,13.03
2019-04-01T22:30:03.000Z,9.43
2019-04-01T22:32:38.528Z,12.90
2019-04-01T22:35:12.511Z,13.30
2019-04-01T22:37:43.969Z,10.10
2019-04-01T22:40:16.990Z,9.50
2019-04-01T22:42:50.021Z,11.20
2019-04-01T22:45:22.971Z,12.70
2019-04-01T22:48:13.208Z,21.37
2019-04-01T22:50:52.782Z,8.60
2019-04-01T22:53:26.165Z,13.07
2019-04-01T22:56:00.253Z,9.53
2019-04-01T22:58:32.183Z,17.40
2019-04-01T23:01:05.403Z,13.47
2019-04-01T23:03:41.793Z,12.97
2019-04-01T23:06:14.384Z,8.50
2019-04-01T23:08:48.862Z,11.27
2019-04-01T23:11:22.496Z,10.93
2019-04-01T23:13:53.530Z,12.40
2019-04-01T23:16:23.969Z,8.60
2019-04-01T23:18:57.201Z,10.40
2019-04-01T23:21:31.137Z,11.73
2019-04-01T23:24:02.472Z,7.67
2019-04-01T23:26:35.412Z,14.13
2019-04-01T23:29:08.904Z,9.97
2019-04-01T23:31:57.621Z,7.40
2019-04-01T23:34:33.062Z,10.50
2019-04-01T23:37:09.097Z,11.03
2019-04-01T23:39:58.246Z,9.20
2019-04-01T23:42:32.119Z,9.60
2019-04-01T23:45:02.774Z,11.23
2019-04-01T23:47:34.444Z,8.23
2019-04-01T23:50:09.801Z,15.50
2019-04-01T23:52:58.477Z,12.87
2019-04-01T23:55:31.606Z,8.20
2019-04-01T23:58:03.923Z,14.97
